Latest Weather Observations for Marree Airport

IDS60801

Issued at 11:31 am CST Sunday 1 May 2016 (issued every 30 minutes, with the page automatically refreshed every 10 minutes)

About weather observations | Map of weather stations | Latest weather observations for SA | Other Formats
Station Details ID: 017126 Name: MARREE AERO Lat: -29.66 Lon: 138.07 Height: 50.0 m
Data from the previous 72 hours. | See also: Recent months at Marree Airport
Date/Time
CST
Temp
°C
App
Temp
°C
Dew
Point
Rel
Hum
%
Delta-T
°C
Wind Press
QNH
hPa
Press
MSL
hPa
Rain
since 9 am
mm
Dir
 
Spd
km/h
Gust
km/h
Spd
kts
Gust
kts
01/11:30am 21.7 16.1 5.6 35 8.0 S 24 32 13 17 1019.2 1019.1 0.0
01/11:00am 21.2 15.8 6.3 38 7.5 S 24 35 13 19 1019.3 1019.2 0.0
01/10:30am 20.6 14.9 6.5 40 7.1 S 26 35 14 19 1019.6 1019.5 0.0
01/10:00am 19.4 14.2 7.2 45 6.2 S 24 32 13 17 1019.8 1019.7 0.0
01/09:30am 19.3 14.3 8.0 48 5.8 SSE 24 35 13 19 1019.8 1019.7 0.0
01/09:00am 18.3 12.6 8.3 52 5.1 S 28 37 15 20 1019.7 1019.5 0.0
01/08:30am 17.5 13.2 9.4 59 4.2 S 22 30 12 16 1019.5 1019.3 0.0
01/08:00am 15.9 13.2 9.1 64 3.5 S 13 17 7 9 1019.2 1019.0 0.0
01/07:30am 14.3 12.2 8.3 67 3.0 SSE 9 11 5 6 1018.9 1018.7 0.0
01/07:00am 13.9 11.0 8.3 69 2.8 S 13 15 7 8 1018.8 1018.6 0.0
01/06:30am 14.9 10.9 8.4 65 3.3 S 19 22 10 12 1018.5 1018.3 0.0
01/06:00am 15.9 10.5 8.2 60 3.9 S 26 33 14 18 1018.1 1017.9 0.0
01/05:30am 16.3 11.2 7.8 57 4.3 S 24 30 13 16 1017.9 1017.7 0.0
01/05:00am 16.4 11.7 7.6 56 4.4 SSW 22 26 12 14 1017.5 1017.3 0.0
01/04:30am 16.6 12.3 7.8 56 4.4 SSW 20 26 11 14 1017.3 1017.1 0.0
01/04:00am 16.9 12.8 7.8 55 4.6 S 19 22 10 12 1017.0 1016.8 0.0
01/03:30am 17.4 13.1 8.0 54 4.8 S 20 28 11 15 1016.9 1016.7 0.0
01/03:00am 17.8 12.1 8.4 54 4.8 S 28 35 15 19 1016.2 1016.0 0.0
01/02:30am 18.0 13.3 9.1 56 4.6 S 24 32 13 17 1016.1 1015.9 0.0
01/02:00am 18.5 14.2 9.3 55 4.8 SSE 22 30 12 16 1016.2 1016.0 0.0
01/01:30am 19.1 13.6 9.3 53 5.2 S 28 39 15 21 1015.8 1015.6 0.0
01/01:00am 19.3 14.3 9.5 53 5.2 S 26 33 14 18 1015.4 1015.2 0.0
01/12:30am 21.0 15.9 10.5 51 5.7 SW 28 35 15 19 1015.2 1015.0 0.0
01/12:27am 20.9 15.7 10.4 51 5.7 SW 28 35 15 19 1015.2 1015.0 0.0
01/12:00am 18.1 15.8 11.7 66 3.5 W 15 17 8 9 1014.7 1014.5 0.0
 
Date/Time
CST
Temp
°C
App
Temp
°C
Dew
Point
Rel
Hum
%
Delta-T
°C
Wind Press
QNH
hPa
Press
MSL
hPa
Rain
since 9 am
mm
Dir
 
Spd
km/h
Gust
km/h
Spd
kts
Gust
kts
30/11:30pm 18.6 15.8 11.4 63 3.9 WSW 17 19 9 10 1014.6 1014.4 0.0
30/11:00pm 19.4 17.9 11.9 62 4.2 WNW 11 13 6 7 1014.3 1014.1 0.0
30/10:30pm 20.4 19.0 12.1 59 4.6 NW 11 13 6 7 1014.0 1013.8 0.0
30/10:00pm 20.4 19.1 12.4 60 4.5 NNW 11 13 6 7 1013.6 1013.4 0.0
30/09:30pm 21.1 19.4 12.5 58 4.9 N 13 13 7 7 1013.6 1013.4 0.0
30/09:00pm 21.6 19.9 12.5 56 5.2 N 13 17 7 9 1013.6 1013.4 0.0
30/08:30pm 22.5 21.3 12.7 54 5.6 N 11 13 6 7 1013.5 1013.3 0.0
30/08:00pm 23.2 21.2 12.8 52 6.0 N 15 17 8 9 1013.3 1013.1 0.0
30/07:30pm 23.8 21.4 12.8 50 6.3 N 17 17 9 9 1013.2 1013.0 0.0
30/07:00pm 24.2 22.2 12.8 49 6.6 N 15 17 8 9 1012.9 1012.7 0.0
30/06:30pm 24.5 23.0 13.1 49 6.6 N 13 15 7 8 1012.4 1012.2 0.0
30/06:00pm 25.1 23.3 13.3 48 6.9 N 15 19 8 10 1012.4 1012.2 0.0
30/05:30pm 25.6 23.5 13.5 47 7.1 N 17 20 9 11 1012.3 1012.1 0.0
30/05:00pm 26.0 24.3 13.5 46 7.4 NNW 15 19 8 10 1012.2 1012.0 0.0
30/04:30pm 26.3 24.1 13.4 45 7.6 N 17 22 9 12 1012.1 1011.9 0.0
30/04:00pm 26.7 23.1 13.1 43 8.0 NNW 24 30 13 16 1012.7 1012.5 0.0
30/03:30pm 26.5 22.7 14.6 48 7.1 N 28 35 15 19 1012.3 1012.1 0.0
30/03:00pm 26.9 24.1 14.3 46 7.5 N 22 28 12 15 1012.4 1012.2 0.0
30/02:30pm 27.4 25.3 15.1 47 7.5 NNW 20 24 11 13 1012.5 1012.3 0.0
30/02:00pm 26.8 25.4 15.5 50 6.9 NNW 17 22 9 12 1012.8 1012.6 0.0
30/01:30pm 26.6 24.0 15.0 49 7.0 N 22 26 12 14 1013.2 1013.0 0.0
30/01:00pm 27.3 24.8 14.0 44 7.9 N 20 30 11 16 1013.9 1013.7 0.0
30/12:30pm 27.6 26.4 13.9 43 8.2 N 13 22 7 12 1014.1 1013.9 0.0
30/12:00pm 26.9 25.2 13.6 44 7.9 NNE 15 19 8 10 1014.3 1014.1 0.0
30/11:30am 26.7 24.4 14.1 46 7.5 NNE 19 22 10 12 1014.6 1014.4 0.0
30/11:00am 25.8 25.0 15.2 52 6.4 NNE 13 15 7 8 1015.3 1015.1 0.0
30/10:30am 24.9 25.1 15.8 57 5.5 NNE 9 15 5 8 1015.9 1015.7 0.0
30/10:00am 23.7 24.0 16.0 62 4.7 ENE 9 13 5 7 1015.8 1015.6 0.0
30/09:30am 22.1 22.4 15.9 68 3.7 SE 9 13 5 7 1015.8 1015.6 0.0
30/09:00am 20.0 19.6 16.2 79 2.3 SE 13 15 7 8 1015.9 1015.7 0.0
30/08:30am 17.9 17.5 17.1 95 0.5 SE 15 19 8 10 1015.9 1015.7 0.0
30/08:00am 16.4 15.6 16.1 98 0.2 SSE 15 17 8 9 1015.8 1015.6 0.0
30/07:30am 15.4 13.8 15.1 98 0.2 SSE 17 20 9 11 1015.7 1015.5 0.0
30/07:00am 14.3 12.7 14.0 98 0.2 SSE 15 17 8 9 1015.3 1015.1 0.0
30/06:30am 13.9 12.2 13.6 98 0.2 SSE 15 17 8 9 1015.4 1015.2 0.0
30/06:00am 13.8 12.4 13.5 98 0.2 SSE 13 15 7 8 1015.6 1015.4 0.0
30/05:30am 13.9 12.9 13.4 97 0.3 SSE 11 13 6 7 1015.5 1015.3 0.0
30/05:00am 13.8 12.4 13.3 97 0.3 SSE 13 15 7 8 1015.3 1015.1 0.0
30/04:30am 13.5 11.9 12.9 96 0.3 SSE 13 15 7 8 1015.1 1014.9 0.0
30/04:00am 13.9 13.2 13.3 96 0.3 SSE 9 13 5 7 1015.2 1015.0 0.0
30/03:30am 14.1 13.1 13.5 96 0.3 SSE 11 13 6 7 1014.8 1014.6 0.0
30/03:00am 14.1 12.7 13.3 95 0.4 SSE 13 15 7 8 1015.0 1014.8 0.0
30/02:30am 13.9 12.4 13.1 95 0.4 SSE 13 15 7 8 1015.0 1014.8 0.0
30/02:00am 14.0 12.5 13.2 95 0.4 SSE 13 15 7 8 1015.0 1014.8 0.0
30/01:30am 14.4 13.8 13.4 94 0.6 SSE 9 9 5 5 1015.0 1014.8 0.0
30/01:00am 14.4 14.1 13.4 94 0.6 SSE 7 7 4 4 1015.1 1014.9 0.0
30/12:30am 14.8 15.8 13.3 91 0.8 CALM 0 6 0 3 1015.2 1015.0 0.0
30/12:00am 15.5 15.9 13.7 89 1.0 WSW 4 6 2 3 1015.4 1015.2 0.0
 
Date/Time
CST
Temp
°C
App
Temp
°C
Dew
Point
Rel
Hum
%
Delta-T
°C
Wind Press
QNH
hPa
Press
MSL
hPa
Rain
since 9 am
mm
Dir
 
Spd
km/h
Gust
km/h
Spd
kts
Gust
kts
29/11:30pm 15.6 15.2 14.0 90 0.9 WSW 9 11 5 6 1015.6 1015.4 0.0
29/11:00pm 16.4 17.2 14.8 90 0.9 WNW 4 6 2 3 1015.9 1015.7 0.0
29/10:30pm 17.5 18.8 15.1 86 1.4 NNE 2 7 1 4 1016.0 1015.8 0.0
29/10:00pm 17.3 18.5 14.9 86 1.4 NE 2 7 1 4 1016.1 1015.9 0.0
29/09:30pm 18.8 18.1 15.3 80 2.1 NNE 13 15 7 8 1015.9 1015.7 0.0
29/09:00pm 19.2 18.2 15.5 79 2.2 NNE 15 17 8 9 1015.8 1015.6 0.0
29/08:30pm 19.5 18.8 15.4 77 2.4 NNE 13 15 7 8 1015.5 1015.3 0.0
29/08:00pm 20.1 19.4 15.3 74 2.8 NNE 13 13 7 7 1015.3 1015.1 0.0
29/07:30pm 20.7 20.4 15.5 72 3.1 NE 11 13 6 7 1015.0 1014.8 0.0
29/07:00pm 21.1 20.3 15.2 69 3.5 NE 13 13 7 7 1014.6 1014.4 0.0
29/06:30pm 22.0 21.3 15.4 66 3.9 NE 13 13 7 7 1014.3 1014.1 0.0
29/06:00pm 23.1 22.4 15.4 62 4.6 NNE 13 17 7 9 1014.4 1014.2 0.0
29/05:30pm 23.9 22.0 15.1 58 5.3 NNE 19 22 10 12 1014.2 1014.0 0.0
29/05:00pm 24.6 22.6 13.8 51 6.4 NE 17 20 9 11 1014.0 1013.8 0.0
29/04:30pm 25.7 23.5 12.2 43 7.8 NE 15 19 8 10 1013.9 1013.7 0.0
29/04:00pm 25.7 24.0 12.5 44 7.6 NNE 13 17 7 9 1013.9 1013.7 0.0
29/03:30pm 26.0 25.5 12.5 43 7.8 N 7 13 4 7 1014.3 1014.1 0.0
29/03:00pm 25.9 25.2 12.0 42 8.0 N 7 11 4 6 1014.2 1014.0 0.0
29/02:30pm 26.0 26.7 12.1 42 8.0 CALM 0 0 0 0 1014.0 1013.8 0.0
29/02:00pm 25.8 26.1 12.3 43 7.8 SW 2 7 1 4 1014.3 1014.1 0.0
29/01:30pm 25.5 25.5 12.4 44 7.6 NNE 4 6 2 3 1014.3 1014.1 0.0
29/01:00pm 24.8 24.3 12.7 47 7.0 E 7 11 4 6 1014.4 1014.2 0.0
29/12:30pm 24.7 23.7 13.3 49 6.6 SE 11 13 6 7 1014.6 1014.4 0.0
29/12:00pm 24.2 22.7 13.1 50 6.4 ESE 13 19 7 10 1014.8 1014.6 0.0
29/11:30am 23.6 22.0 13.8 54 5.7 SE 15 20 8 11 1015.4 1015.2 0.0
29/11:00am 23.3 21.7 13.8 55 5.6 SE 15 20 8 11 1016.1 1015.9 0.0
29/10:30am 22.7 21.6 14.3 59 4.9 SSE 13 17 7 9 1016.5 1016.3 0.0
29/10:00am 22.3 20.4 14.2 60 4.7 SE 17 20 9 11 1016.4 1016.2 0.0
29/09:30am 22.1 19.8 14.0 60 4.7 S 19 22 10 12 1016.6 1016.4 0.0
29/09:00am 21.6 19.1 14.0 62 4.4 S 20 28 11 15 1016.9 1016.7 1.0
29/08:30am 21.6 17.0 13.5 60 4.7 S 30 35 16 19 1015.8 1015.6 1.0
29/08:00am 21.9 17.6 13.3 58 5.0 SSW 28 35 15 19 1015.5 1015.3 1.0
29/07:30am 21.7 20.2 16.4 72 3.2 SSW 19 26 10 14 1015.2 1015.0 1.0
29/07:00am 20.3 21.3 18.6 90 1.1 S 11 15 6 8 1014.4 1014.2 1.0
29/06:30am 20.1 20.5 18.2 89 1.2 SE 13 17 7 9 1014.2 1014.0 1.0
29/06:00am 20.6 20.1 16.8 79 2.3 S 15 17 8 9 1013.5 1013.3 1.0
29/05:30am 21.3 19.0 15.8 71 3.3 SW 22 28 12 15 1013.9 1013.7 1.0
29/05:12am 20.3 18.6 18.1 87 1.4 SSW 24 39 13 21 1013.8 1013.6 1.0
29/05:00am 20.4 20.0 18.0 86 1.5 SSE 17 19 9 10 1012.6 1012.4 1.0
29/04:30am 20.2 20.2 18.0 87 1.4 ESE 15 17 8 9 1012.6 1012.4 1.0
29/04:00am 20.2 20.2 16.2 78 2.4 ESE 11 15 6 8 1013.1 1012.9 1.0
29/03:30am 21.3 21.1 14.7 66 3.9 E 9 17 5 9 1013.1 1012.9 0.8
29/03:00am 22.2 20.7 14.3 61 4.6 ENE 15 19 8 10 1013.3 1013.1 0.6
29/02:30am 22.1 19.8 14.0 60 4.7 ENE 19 24 10 13 1013.5 1013.3 0.6
29/02:00am 21.5 20.0 11.8 54 5.4 SW 11 13 6 7 1013.7 1013.5 0.4
29/01:30am 22.1 20.0 9.6 45 6.8 SE 11 11 6 6 1013.2 1013.0 0.0
29/01:00am 22.6 21.7 10.7 47 6.6 SSE 6 9 3 5 1013.5 1013.3 0.0
29/12:30am 23.0 21.4 4.5 30 9.1 W 2 6 1 3 1013.9 1013.7 0.0
29/12:00am 23.2 21.9 4.2 29 9.3 CALM 0 6 0 3 1014.2 1014.0 0.0
 
Date/Time
CST
Temp
°C
App
Temp
°C
Dew
Point
Rel
Hum
%
Delta-T
°C
Wind Press
QNH
hPa
Press
MSL
hPa
Rain
since 9 am
mm
Dir
 
Spd
km/h
Gust
km/h
Spd
kts
Gust
kts
28/11:30pm 23.5 21.5 4.5 29 9.4 NE 4 7 2 4 1014.2 1014.0 0.0
28/11:00pm 24.3 21.3 4.1 27 10.0 NE 9 11 5 6 1014.3 1014.1 0.0
28/10:30pm 24.2 20.8 4.0 27 10.0 NE 11 13 6 7 1014.2 1014.0 0.0
28/10:00pm 24.8 21.4 4.0 26 10.3 NE 11 13 6 7 1014.3 1014.1 0.0
28/09:30pm 24.2 20.3 3.5 26 10.1 ENE 13 17 7 9 1014.1 1013.9 0.0
28/09:00pm 23.9 21.2 2.7 25 10.2 E 6 6 3 3 1014.3 1014.1 0.0
28/08:30pm 24.3 22.8 3.0 25 10.3 CALM 0 0 0 0 1014.1 1013.9 0.0
28/08:00pm 24.8 23.3 2.9 24 10.6 CALM 0 0 0 0 1014.0 1013.8 0.0
28/07:30pm 25.2 23.6 2.6 23 10.9 CALM 0 0 0 0 1014.2 1014.0 0.0
28/07:00pm 25.5 22.3 2.9 23 11.0 NNW 9 11 5 6 1014.1 1013.9 0.0
28/06:30pm 27.6 24.3 2.6 20 12.3 NE 9 9 5 5 1013.8 1013.6 0.0
28/06:00pm 28.2 24.9 2.4 19 12.7 NE 9 11 5 6 1013.5 1013.3 0.0
28/05:30pm 29.7 27.5 1.2 16 13.9 NW 2 7 1 4 1013.4 1013.2 0.0
28/05:00pm 30.5 27.1 1.9 16 14.2 N 9 13 5 7 1013.6 1013.4 0.0
28/04:30pm 30.7 26.4 1.1 15 14.5 N 13 17 7 9 1013.9 1013.7 0.0
28/04:00pm 30.7 27.3 -0.8 13 14.9 NNW 7 15 4 8 1014.0 1013.8 0.0
28/03:30pm 31.0 26.1 -0.6 13 15.1 NNW 15 20 8 11 1014.1 1013.9 0.0
28/03:00pm 31.4 26.5 -0.3 13 15.2 N 15 26 8 14 1013.9 1013.7 0.0
28/02:30pm 31.8 27.5 1.0 14 15.2 NNW 13 26 7 14 1013.9 1013.7 0.0
28/02:00pm 31.8 27.0 0.0 13 15.4 N 15 24 8 13 1014.2 1014.0 0.0
28/01:30pm 31.3 27.7 0.6 14 15.0 NNW 9 15 5 8 1015.0 1014.8 0.0
28/01:00pm 31.0 27.4 0.4 14 14.8 N 9 24 5 13 1015.3 1015.1 0.0
28/12:30pm 30.0 24.9 3.1 18 13.6 NNE 19 28 10 15 1015.9 1015.7 0.0
28/12:00pm 30.2 25.1 3.3 18 13.6 NNE 19 24 10 13 1016.5 1016.3 0.0

Other Formats:

Comma delimited format used in spreadsheet applications
http://www.bom.gov.au/fwo/IDS60801/IDS60801.95480.axf

JavaScript Object Notation format (JSON) in row-major order
http://www.bom.gov.au/fwo/IDS60801/IDS60801.95480.json